Roberto Rodrigues

Chefscout - Atlético Mineiro
29 Okt 2028
Sonntag
Verarbeitung

Persönlichkeit

Anpassungsfähigkeit (9) Ehrgeiz (2) Kontroverse (17) Loyalität (11) Druck (9) Professionalität (1) Fairness (17) Temperament (13)

Profil

Trainerstil Demokratisch
Lizenz Nationale B
Entschlossenheit 9
Menschenführung 11
Motivation 11
Disziplin 11
Arbeitszufriedenheit
100%
Ermüdung
0%
Rolle Chefscout
Gehalt 107.5K p/W
Vertrag 14.03.2030

Leistung

Verhalten Gut
Trainingseffektivität
59%
Spielerentwicklung
65%
Verletzungsprävention
55%
Taktische Umsetzung
50%

Letzte Ereignisse

Spieler begutachtet jetzt
Nahm an einer Scouting-Besprechung teil jetzt
Empfahl ein Transferziel jetzt
Empfahl ein Transferziel jetzt
Empfahl ein Transferziel jetzt
Nahm an einer Scouting-Besprechung teil jetzt
Spieler begutachtet jetzt
Spieler begutachtet jetzt

Aktuell beobachtet

337
Spieler Verein Status Fähigkeit Vertrauen Beobachtet Zuletzt beobachtet Letzte Stimme
Gabriel Bontempo Sport Recife Aktiv 135 / 128 40% 1 28.10.2028 -
Wesley Al-Nassr Aktiv 133 / 114 40% 1 28.10.2028 -
Jeremías Merlo Gimnasia La Plata Aktiv 122 / 123 40% 1 28.10.2028 -
Vitinho Botafogo Aktiv 141 / 147 40% 15 26.10.2028 -
Matheus Bidu Corinthians Aktiv 128 / 138 40% 15 26.10.2028 -
Juan Ignacio Nardoni Grêmio Aktiv 139 / 137 40% 2 26.10.2028 -
Juan Pablo Freytes Fluminense Aktiv 133 / 121 40% 6 25.10.2028 -
Alexandro Bernabei Internacional Aktiv 138 / 148 40% 9 25.10.2028 -
Martinelli Fluminense Aktiv 149 / 136 40% 5 25.10.2028 -
Felipe Peña Biafore Lanús Aktiv 130 / 122 40% 4 24.10.2028 -
Riku Yamane Yokohama F. Marinos Aktiv 141 / 143 40% 2 24.10.2028 -
Nahuel Tenaglia Banfield Aktiv 136 / 140 40% 4 24.10.2028 -
Enzo Díaz Sport Recife Aktiv 130 / 138 40% 7 23.10.2028 -
Franco Ibarra Rosario Central Aktiv 131 / 136 40% 5 23.10.2028 -
Álex Valle Boca Juniors Aktiv 140 / 144 40% 4 23.10.2028 -
Santiago González Tigre Aktiv 128 / 136 40% 9 22.10.2028 -
Matías Galarza Talleres Aktiv 131 / 123 40% 1 22.10.2028 -
Rico Henry River Plate Aktiv 145 / 150 40% 12 21.10.2028 -
Guille Rosas Boca Juniors Aktiv 145 / 152 40% 8 21.10.2028 -
Kauã Moraes Flamengo Aktiv 135 / 127 40% 3 21.10.2028 -
Lucca São Paulo Aktiv 123 / 118 40% 1 21.10.2028 -
Geovany Quenda Watford Aktiv 153 / 171 40% 1 21.10.2028 -
Vitão Flamengo Aktiv 145 / 139 40% 9 19.10.2028 -
Guilherme Arana Fluminense Aktiv 133 / 126 40% 5 18.10.2028 -
Danilo Botafogo Aktiv 144 / 148 40% 13 18.10.2028 -
Marcos Antonio Sport Recife Aktiv 145 / 133 40% 8 17.10.2028 -
Gonzalo Plata Nacional Aktiv 138 / 143 40% 1 17.10.2028 -
Luis Vázquez Mamelodi Sundowns Aktiv 141 / 135 40% 1 17.10.2028 -
Ignacio Maestro Puch Independiente Aktiv 131 / 135 40% 1 17.10.2028 -
Luciano Juba Bahia Aktiv 140 / 125 40% 5 15.10.2028 -
Kevin Castaño River Plate Aktiv 135 / 136 40% 3 13.10.2028 -
Léo Ortiz Flamengo Aktiv 135 / 139 40% 9 12.10.2028 -
Ismaël Bennacer Boca Juniors Aktiv 144 / 141 40% 1 12.10.2028 -
Alex Luna Instituto Aktiv 129 / 126 40% 2 11.10.2028 -
Juninho Capixaba Bragantino Aktiv 126 / 124 40% 2 11.10.2028 -
Lucas Piton Vasco da Gama Aktiv 134 / 141 40% 1 11.10.2028 -
Lautaro Vargas Unión de Santa Fe Aktiv 127 / 123 40% 1 11.10.2028 -
Iñaki Larthirigoyen San Telmo Aktiv 123 / 112 40% 1 11.10.2028 -
Marcos López Gimnasia La Plata Aktiv 135 / 128 40% 3 09.10.2028 -
Paulo Henrique Vasco da Gama Aktiv 138 / 119 40% 10 08.10.2028 -
Matheus Rossetto Fortaleza Aktiv 129 / 124 40% 2 06.10.2028 -
Agustín Giay Palmeiras Aktiv 139 / 149 40% 9 05.10.2028 -
Santiago Sosa Vasco da Gama Aktiv 129 / 135 40% 6 05.10.2028 -
Gonzalo Montiel River Plate Aktiv 126 / 130 40% 2 04.10.2028 -
Santiago Ramos Mingo Bahia Aktiv 141 / 138 40% 3 02.10.2028 -
Braian Aguirre Internacional Aktiv 130 / 133 40% 3 02.10.2028 -
Jonathan De Irastorza Independiente Aktiv 137 / 129 40% 4 01.10.2028 -
Gastón Martirena Racing Club Aktiv 128 / 133 40% 4 01.10.2028 -
Hércules Internacional Aktiv 133 / 128 40% 2 30.09.2028 -
Léo Pereira Ceará Aktiv 132 / 140 40% 3 29.09.2028 -
Matheuzinho Corinthians Aktiv 135 / 132 40% 5 19.09.2028 -
Naves Internacional Aktiv 130 / 130 40% 1 16.09.2028 -
Damián Fernández Defensa y Justicia Aktiv 128 / 132 40% 1 15.09.2028 -
Lucas Martínez Quarta Central Córdoba SdE Aktiv 126 / 129 40% 1 09.09.2028 -
Lucas Paquetá Flamengo Aktiv 140 / 140 40% 5 01.09.2028 -
Damián Bobadilla Sport Recife Aktiv 138 / 134 40% 5 29.08.2028 -
Kilian Fischer VfL Wolfsburg Aktiv 148 / 143 40% 1 21.08.2028 -
Matteo Gabbia Genoa Aktiv 151 / 169 40% 2 19.08.2028 -
Thierry Rendall Correia Venezia Aktiv 146 / 140 40% 2 19.08.2028 -
Devyne Rensch Virtus Entella Aktiv 150 / 138 40% 1 19.08.2028 -
Angeliño AS Roma Aktiv 152 / 166 40% 3 18.08.2028 -
Alessandro Buongiorno Cagliari Aktiv 169 / 160 40% 2 18.08.2028 -
Tommaso Barbieri Cremonese Aktiv 146 / 143 40% 1 18.08.2028 -
Antoine Hainaut Venezia Aktiv 139 / 130 40% 1 17.08.2028 -
Eivind Helland AC Milan Aktiv 151 / 147 40% 1 17.08.2028 -
Morten Frendrup Palermo Aktiv 154 / 156 40% 1 17.08.2028 -
Manu Koné AS Roma Aktiv 174 / 182 40% 9 15.08.2028 -
Evan N'Dicka AS Roma Aktiv 171 / 151 40% 3 15.08.2028 -
Matteo Prati Cagliari Aktiv 148 / 138 40% 1 15.08.2028 -
Juan Miranda Bologna Aktiv 153 / 156 40% 1 14.08.2028 -
Oumar Solet Udinese Aktiv 158 / 167 40% 1 14.08.2028 -
Rafa Marín Pisa Aktiv 165 / 156 40% 1 13.08.2028 -
Pervis Estupiñán AC Milan Aktiv 154 / 144 40% 1 13.08.2028 -
Josh Doig Avellino Aktiv 144 / 151 40% 1 13.08.2028 -
Khéphren Thuram Juventus Aktiv 164 / 176 40% 2 11.08.2028 -
Enrico Delprato Parma Aktiv 146 / 146 40% 1 11.08.2028 -
Gianluca Busio Venezia Aktiv 143 / 146 40% 1 10.08.2028 -
Odilon Kossounou Atalanta Aktiv 153 / 144 40% 1 10.08.2028 -
Welington Southampton Aktiv 136 / 151 40% 3 09.08.2028 -
Matteo Ruggeri Middlesbrough Aktiv 163 / 144 40% 2 09.08.2028 -
Callum Brittain Middlesbrough Aktiv 139 / 143 40% 7 08.08.2028 -
Vitaly Janelt Derby County Aktiv 156 / 137 40% 3 08.08.2028 -
Andrey Santos Bolton Wanderers Aktiv 146 / 147 40% 2 08.08.2028 -
Max Bird Birmingham Aktiv 141 / 146 40% 9 07.08.2028 -
Alfie Doughty Millwall Aktiv 133 / 134 40% 2 07.08.2028 -
Largie Ramazani Leeds United Aktiv 145 / 141 40% 1 07.07.2028 -
Yassir Zabiri Stade Rennais Aktiv 142 / 148 40% 1 07.07.2028 -
Zito Luvumbo Cagliari Aktiv 143 / 137 40% 9 05.07.2028 -
Aune Heggebø West Bromwich Albion Aktiv 128 / 144 40% 1 05.07.2028 -
Jayden Danns Bradford City Aktiv 135 / 138 40% 3 04.07.2028 -
Rodrigo Muniz Fulham Aktiv 150 / 143 40% 9 03.07.2028 -
William Osula Wrexham Aktiv 136 / 127 40% 6 03.07.2028 -
Sam Greenwood Bristol City Aktiv 138 / 123 40% 2 03.07.2028 -
Mohamed-Ali Cho Hull City Aktiv 145 / 154 40% 9 01.07.2028 -
Sebastiano Esposito Cagliari Aktiv 154 / 137 40% 6 30.06.2028 -
Yousef Salech Cardiff City Aktiv 136 / 130 40% 3 28.06.2028 -
Gustavo Neves Bragantino Bericht bereit 135 / 140 79% 1 26.06.2028 -
Tyreece Campbell Charlton Athletic Aktiv 125 / 121 40% 1 24.06.2028 -
Oliver Dovin Coventry City Aktiv 140 / 146 40% 1 19.06.2028 -
Caoimhin Kelleher Brentford Aktiv 165 / 146 40% 1 19.06.2028 -
Michele Di Gregorio Juventus Aktiv 150 / 159 40% 1 19.06.2028 -
Nicolas Jackson Aston Villa Aktiv 157 / 160 40% 15 13.06.2028 -
Ben Gannon Doak Charlton Athletic Aktiv 148 / 152 40% 1 13.06.2028 -
Jaden Philogene Wolverhampton Aktiv 151 / 159 40% 1 31.05.2028 -
Fábio Carvalho Brentford Aktiv 147 / 142 40% 9 30.05.2028 -
Thiago Brentford Aktiv 154 / 164 40% 8 30.05.2028 -
Jayden Bogle Leeds United Aktiv 139 / 140 40% 4 30.05.2028 -
Shea Charles Southampton Aktiv 148 / 139 40% 3 29.05.2028 -
Neco Williams Wrexham Aktiv 150 / 135 40% 2 29.05.2028 -
André Wolverhampton Aktiv 157 / 147 40% 4 26.05.2028 -
Iliman N'Diaye Everton Aktiv 158 / 173 40% 7 26.05.2028 -
Ismaïla Sarr Crystal Palace Aktiv 152 / 152 40% 14 24.05.2028 -
Charles De Ketelaere Tottenham Aktiv 159 / 147 40% 4 22.05.2028 -
Jarrod Bowen West Ham United Aktiv 152 / 158 40% 4 21.05.2028 -
Morgan Rogers Chelsea Aktiv 165 / 177 40% 3 21.05.2028 -
Evann Guessand Aston Villa Aktiv 156 / 146 40% 4 20.05.2028 -
Giacomo Raspadori Atalanta Aktiv 151 / 156 40% 3 18.05.2028 -
Boubacar Kamara Aston Villa Aktiv 169 / 155 40% 6 17.05.2028 -
Callum O'Hare Sheffield United Aktiv 133 / 136 40% 10 16.05.2028 -
Bafodé Diakité Plymouth Argyle Aktiv 150 / 152 40% 4 15.05.2028 -
Timothy Castagne Stoke City Aktiv 137 / 132 40% 1 15.05.2028 -
Jhon Solís Birmingham Aktiv 136 / 143 40% 1 14.05.2028 -
Óscar Mingueza Crystal Palace Aktiv 158 / 160 40% 4 12.05.2028 -
Maximiliano Araújo West Ham United Aktiv 153 / 146 40% 3 12.05.2028 -
Manuel Ugarte Leicester City Aktiv 155 / 155 40% 2 12.05.2028 -
Pedro Porro Tottenham Aktiv 158 / 156 40% 5 09.05.2028 -
Tammy Abraham Aston Villa Aktiv 145 / 158 40% 8 09.05.2028 -
Taiwo Awoniyi Middlesbrough Aktiv 147 / 144 40% 5 09.05.2028 -
Moisés Caicedo Chelsea Aktiv 167 / 171 40% 4 08.05.2028 -
Musa Barrow ES Setif Aktiv 138 / 154 40% 7 01.05.2028 -
Emanuel Emegha Chelsea Aktiv 148 / 161 40% 4 30.04.2028 -
Dominic Solanke Tottenham Aktiv 150 / 137 40% 5 28.04.2028 -
Archie Gray Southampton Aktiv 157 / 152 40% 1 25.04.2028 -
Christian Pulisic AC Milan Aktiv 169 / 154 40% 8 20.04.2028 -
Kevin Schade Chelsea Aktiv 150 / 163 40% 2 18.04.2028 -
Nicolás González Juventus Aktiv 155 / 164 40% 2 11.04.2028 -
Caio Alexandre Bahia Aktiv 142 / 139 40% 11 31.03.2028 -
Georginio Rutter Brighton Aktiv 149 / 144 40% 7 24.03.2028 -
José Manuel López Palmeiras Aktiv 139 / 128 40% 7 22.03.2028 -
João Pedro Chelsea Aktiv 162 / 161 40% 5 22.03.2028 -
Pedro Flamengo Aktiv 150 / 153 40% 6 06.03.2028 -
Dwight McNeil Crystal Palace Aktiv 152 / 156 40% 2 27.02.2028 -
Liel Abada Inter Miami CF Aktiv 142 / 127 40% 1 27.02.2028 -
Martín Ojeda Orlando City Aktiv 137 / 139 40% 3 21.02.2028 -
Alex Scott Bournemouth Aktiv 155 / 144 40% 4 19.02.2028 -
Eddie Nketiah Crystal Palace Aktiv 146 / 148 40% 2 11.02.2028 -
Mats Wieffer Brighton Aktiv 147 / 136 40% 2 09.02.2028 -
Gustavo Marques Bragantino Aktiv 133 / 130 40% 3 11.01.2028 -
Matheus Pereira Fortaleza Aktiv 131 / 134 40% 4 11.01.2028 -
Henry Mosquera Bragantino Aktiv 138 / 136 79% 3 11.01.2028 Klar befürworten
Nuno Moreira Vasco da Gama Aktiv 137 / 119 40% 1 09.01.2028 -
Benjamín Rollheiser Santos Aktiv 139 / 121 40% 1 09.01.2028 -
Maurício Palmeiras Aktiv 134 / 123 40% 1 06.01.2028 -
Jhon Arias Palmeiras Aktiv 139 / 130 40% 1 06.01.2028 -
Facundo Colidio Vasco da Gama Aktiv 131 / 121 40% 1 06.01.2028 Mehr Infos nötig
Allan Saint-Maximin Charlotte Football Club Aktiv 137 / 150 40% 2 04.01.2028 -
Ramón Sosa Palmeiras Aktiv 139 / 138 40% 1 04.01.2028 -
Anthony Patterson Wrexham Aktiv 140 / 122 40% 1 28.12.2027 -
Sol Brynn Bradford City Aktiv 137 / 127 40% 1 28.12.2027 -
Dayne St. Clair Inter Miami CF Aktiv 125 / 132 40% 1 28.12.2027 -
Jorge Carrascal Flamengo Aktiv 139 / 131 40% 1 30.11.2027 -
Marco Di Cesare Racing Club Aktiv 133 / 120 40% 4 26.11.2027 -
Bruno Gomes Internacional Aktiv 135 / 144 40% 8 23.11.2027 -
Emerson Royal Flamengo Aktiv 134 / 148 40% 3 21.11.2027 -
Nicolás Romero Minnesota United FC Aktiv 125 / 134 40% 2 18.11.2027 -
Ignacio Vázquez Platense Aktiv 129 / 130 40% 6 17.11.2027 -
Arthur Flamengo Aktiv 137 / 135 40% 5 16.11.2027 -
Breno Bidon Corinthians Aktiv 126 / 126 40% 4 16.11.2027 -
Lucas Veríssimo Santos Aktiv 141 / 131 40% 3 12.11.2027 -
Facundo Mura Inter Miami CF Aktiv 130 / 140 40% 4 11.11.2027 -
David Brekalo Orlando City Aktiv 128 / 136 40% 3 10.11.2027 -
Niklas Dorsch Toronto FC Aktiv 127 / 144 40% 4 28.10.2027 -
Marcel Hartel St. Louis CITY SC Aktiv 126 / 145 40% 4 17.10.2027 -
Guga Fluminense Aktiv 131 / 126 40% 5 10.10.2027 -
Emanuel Mammana Vélez Aktiv 134 / 129 40% 1 07.10.2027 -
Juan Carlos Portillo River Plate Aktiv 129 / 119 40% 2 03.10.2027 -
Lucas Sanabria LA Galaxy Aktiv 127 / 140 40% 2 17.09.2027 -
Fredrik Bjørkan Bodo/Glimt Aktiv 124 / 109 40% 1 15.09.2027 -
Takahiro Sekine Sydney FC Aktiv 137 / 114 40% 1 11.09.2027 -
Renato Tapia Al Wasl Aktiv 147 / 129 40% 1 25.08.2027 -
César Inga Universitario Aktiv 135 / 135 40% 1 23.08.2027 -
Valentino Lazaro Al Ain Aktiv 150 / 123 40% 1 22.08.2027 -
Conrad Wallem Djurgarden Aktiv 136 / 141 40% 1 21.08.2027 -
Alessandro Bastoni Inter Aktiv 171 / 182 40% 1 19.08.2027 -
Rolando Mandragora Torino Aktiv 152 / 143 40% 1 19.08.2027 -
André-Franck Zambo Anguissa Napoli Aktiv 169 / 147 40% 8 17.08.2027 -
Sebastiano Luperto Cremonese Aktiv 144 / 150 40% 1 17.08.2027 -
Nicolò Rovella Lazio Aktiv 158 / 143 40% 2 16.08.2027 -
Lewis Ferguson Bologna Aktiv 143 / 164 40% 1 13.08.2027 -
Arthur Atta Fiorentina Aktiv 149 / 134 40% 1 12.08.2027 -
Mitchel Bakker Modena Aktiv 131 / 116 40% 1 10.08.2027 -
Raoul Bellanova Atalanta Aktiv 157 / 149 40% 1 10.08.2027 -
Mehdi Dorval Catanzaro Aktiv 137 / 119 40% 1 10.08.2027 -
Harry Clarke Preston Aktiv 127 / 119 40% 7 09.08.2027 -
Max Johnston Derby County Aktiv 128 / 136 40% 4 08.08.2027 -
Hidemasa Morita Hull City Aktiv 143 / 143 40% 6 07.08.2027 -
Amadou Onana Aston Villa Aktiv 159 / 151 40% 3 05.08.2027 -
Jonathan Varane Queens Park Rangers Aktiv 130 / 140 40% 1 05.08.2027 -
Yeremy Pino Crystal Palace Aktiv 149 / 151 40% 1 20.07.2027 -
Gianluca Scamacca Atalanta Aktiv 152 / 163 40% 3 21.06.2027 -
Milan van Ewijk Coventry City Aktiv 136 / 141 40% 8 29.05.2027 -
Olivier Boscagli Brighton Aktiv 150 / 148 40% 2 29.05.2027 -
Dara O'Shea Ipswich Town Aktiv 139 / 139 40% 5 26.05.2027 -
Jacob Greaves Ipswich Town Aktiv 136 / 139 40% 9 24.05.2027 -
Jarrad Branthwaite Everton Aktiv 150 / 157 40% 2 24.05.2027 -
Juanlu Bournemouth Aktiv 143 / 164 40% 3 23.05.2027 -
James Garner Everton Aktiv 145 / 134 40% 1 23.05.2027 -
Nordi Mukiele Sunderland Aktiv 147 / 161 40% 4 22.05.2027 -
Tino Livramento Newcastle United Aktiv 151 / 159 40% 2 22.05.2027 -
Brooke Norton-Cuffy Hull City Aktiv 142 / 141 40% 5 21.05.2027 -
Azor Matusiwa Ipswich Town Aktiv 136 / 126 40% 6 21.05.2027 -
Lorenzo Colombo Genoa Aktiv 145 / 120 40% 2 21.05.2027 -
James Trafford Leeds United Aktiv 140 / 148 40% 3 20.05.2027 -
Joseph Leclercq Tottenham Aktiv 151 / 163 40% 1 20.05.2027 -
Leon Goretzka Aston Villa Aktiv 148 / 163 40% 15 18.05.2027 -
Yehor Yarmoliuk Brentford Aktiv 153 / 161 40% 1 18.05.2027 -
Xaver Schlager Nottingham Forest Aktiv 145 / 146 40% 3 17.05.2027 -
Robin Roefs Sunderland Aktiv 142 / 142 40% 2 16.05.2027 -
Cody Gakpo Liverpool Aktiv 165 / 157 40% 1 16.05.2027 -
Mile Svilar AS Roma Aktiv 159 / 149 40% 1 16.05.2027 -
Jake O'Brien Everton Aktiv 142 / 138 40% 1 12.05.2027 -
Matthew Targett Hull City Aktiv 129 / 130 40% 4 02.05.2027 -
Dennis Cirkin Queens Park Rangers Aktiv 134 / 129 40% 1 02.05.2027 -
Taty Castellanos West Ham United Aktiv 153 / 131 40% 2 01.05.2027 -
Jørgen Strand Larsen Brighton Aktiv 145 / 129 40% 2 25.04.2027 -
Quinten Timber Crystal Palace Aktiv 157 / 153 40% 1 24.04.2027 -
Lewis Hall Newcastle United Aktiv 145 / 152 40% 1 20.04.2027 -
Maxence Lacroix Chelsea Aktiv 149 / 149 40% 1 19.04.2027 -
Kyle Walker-Peters West Ham United Aktiv 142 / 140 40% 3 18.04.2027 -
Fran Vieites Walsall Aktiv 119 / 126 40% 1 18.04.2027 -
Elia Caprile Cagliari Aktiv 139 / 159 40% 1 18.04.2027 -
Florentino Luís Ipswich Town Aktiv 147 / 139 40% 7 15.04.2027 -
Nicolò Tresoldi Club Brugge Aktiv 139 / 118 40% 2 12.04.2027 -
Vedat Muriqi Fenerbahce Aktiv 143 / 152 40% 1 10.04.2027 -
Kenny Tete Fulham Aktiv 145 / 130 40% 2 07.04.2027 -
Oliver Skipp Leicester City Aktiv 135 / 113 40% 1 07.04.2027 -
Luke McNally Bristol City Aktiv 130 / 130 40% 4 06.04.2027 -
Diego Gómez Brighton Aktiv 148 / 162 40% 1 02.04.2027 -
Tomáš Souček West Ham United Aktiv 137 / 131 40% 1 02.04.2027 -
Enzo Barrenechea Benfica Aktiv 145 / 155 40% 15 27.03.2027 -
Bright Arrey-Mbi Braga Aktiv 139 / 124 40% 8 27.03.2027 -
Alberto Costa Porto Aktiv 151 / 162 40% 13 26.03.2027 -
Dinis Pinto Moreirense Aktiv 131 / 132 40% 8 26.03.2027 -
Rodrigo Pinheiro Famalicao Aktiv 129 / 135 40% 1 24.03.2027 -
Iván Fresneda Sporting CP Aktiv 146 / 152 40% 9 22.03.2027 -
Javi Sánchez Arouca Aktiv 136 / 130 40% 4 22.03.2027 -
Sikou Niakaté Braga Aktiv 140 / 124 40% 2 20.03.2027 -
Eduardo Quaresma Sporting CP Aktiv 144 / 144 40% 5 20.03.2027 -
Víctor Gómez Braga Aktiv 143 / 143 40% 15 19.03.2027 -
Andrea Pinamonti Lazio Aktiv 134 / 137 40% 1 17.03.2027 -
Jordan Holsgrove Estoril Praia Aktiv 135 / 145 40% 4 15.03.2027 -
Mathias De Amorim Famalicao Aktiv 126 / 116 40% 3 15.03.2027 -
Dawda Camara Alverca Aktiv 124 / 130 40% 1 14.03.2027 -
Denis Huseinbašić Braga Aktiv 124 / 123 40% 1 11.03.2027 -
Pablo Rosario Porto Aktiv 143 / 154 40% 14 10.03.2027 -
Tomás Araújo Benfica Aktiv 145 / 160 40% 2 08.03.2027 -
Toby Collyer West Bromwich Albion Aktiv 132 / 149 40% 2 07.03.2027 -
Jean-Baptiste Gorby Braga Aktiv 135 / 117 40% 2 05.03.2027 -
Zeno Debast Sporting CP Aktiv 135 / 130 40% 1 04.03.2027 -
Gabriel Brazão Santos Aktiv 133 / 128 40% 1 03.03.2027 -
Pau Víctor Braga Aktiv 146 / 135 40% 8 02.03.2027 -
Brian Brobbey Sunderland Aktiv 134 / 131 40% 2 02.03.2027 -
Sidney Lima Santa Clara Aktiv 133 / 143 40% 2 02.03.2027 -
Toti Wolverhampton Aktiv 130 / 145 40% 1 02.03.2027 -
Teboho Mokoena Mamelodi Sundowns Aktiv 139 / 123 40% 1 21.02.2027 -
Luís Esteves Atlas Aktiv 132 / 112 40% 2 19.02.2027 -
Adonis Frías Atlas Aktiv 125 / 144 40% 3 18.02.2027 -
Rubén Duarte Pumas UNAM Aktiv 133 / 126 40% 5 17.02.2027 -
Nathan Silva Pumas UNAM Aktiv 126 / 119 40% 1 15.02.2027 -
Bilal Bayazıt Kayserispor Aktiv 123 / 133 40% 1 13.02.2027 -
Nicolás Ibáñez Cruz Azul Aktiv 142 / 118 40% 1 08.02.2027 -
Ricardo Horta Braga Aktiv 153 / 133 40% 4 03.02.2027 -
Diego Rossi Monterrey Aktiv 134 / 132 40% 1 03.02.2027 -
Jesús Gallardo Toluca Aktiv 139 / 123 40% 1 02.02.2027 -
Joe Gelhardt Hull City Aktiv 124 / 127 40% 2 27.01.2027 -
Aaron Hickey Brentford Aktiv 145 / 133 40% 1 24.01.2027 -
Gustavo Silva Vitoria Guimaraes Aktiv 119 / 122 40% 2 22.01.2027 -
Talisca Fenerbahce Aktiv 154 / 129 40% 2 18.01.2027 -
Rodrigo Echeverría Leon Aktiv 132 / 143 40% 1 17.01.2027 -
Rafael Navarro Famalicao Aktiv 121 / 130 40% 1 17.01.2027 -
Dylan Nandín Arouca Aktiv 116 / 129 40% 1 17.01.2027 -
Andrew Robertson Tottenham Aktiv 152 / 155 40% 2 12.01.2027 -
Joaquim Tigres Aktiv 130 / 125 40% 1 11.01.2027 -
Wesley Saïd RC Lens Aktiv 135 / 117 40% 1 10.01.2027 -
Leandro Barreiro Benfica Aktiv 141 / 146 40% 4 04.01.2027 -
Sorriso Famalicao Aktiv 126 / 113 40% 3 03.01.2027 -
Yanis Begraoui Estoril Praia Aktiv 133 / 127 40% 2 02.01.2027 -
André Lacximicant Estoril Praia Aktiv 116 / 104 40% 1 02.01.2027 -
Eduardo Lozano Botafogo Aktiv 139 / 154 40% 1 29.12.2026 -
Odsonne Édouard Olympique Lyonnais Aktiv 138 / 126 40% 1 28.12.2026 -
Yoane Wissa Newcastle United Verloren 147 / 143 40% 5 25.12.2026 -
Ayase Ueda LOSC Lille Aktiv 138 / 142 40% 2 25.12.2026 -
Petar Musa FC Dallas Aktiv 130 / 134 40% 1 25.12.2026 -
Romarinho Criciuma Aktiv 122 / 120 72% 1 21.12.2026 Befürworten
Hamza Igamane LOSC Lille Aktiv 139 / 149 40% 1 21.12.2026 -
Gabriel Silva Braga Aktiv 127 / 127 40% 1 16.12.2026 -
Vinícius Lopes Santa Clara Aktiv 127 / 134 40% 1 07.12.2026 -
Matheuzinho Vitória Aktiv 126 / 122 72% 1 06.12.2026 Befürworten
Pepê Porto Aktiv 149 / 161 40% 8 28.11.2026 -
João Carvalho Estoril Praia Aktiv 142 / 146 40% 3 28.11.2026 -
Carlos Álvarez Club America Aktiv 129 / 120 40% 5 27.11.2026 -
Fredrik Aursnes Benfica Aktiv 140 / 161 40% 5 25.11.2026 -
Heorhii Sudakov Benfica Aktiv 141 / 162 40% 10 25.11.2026 -
William Gomes Porto Aktiv 149 / 133 40% 6 17.11.2026 -
Geny Sporting CP Aktiv 150 / 150 40% 7 09.11.2026 -
Rodrigo Garro Corinthians Aktiv 142 / 126 40% 1 07.11.2026 -
Carlos Rodríguez Cruz Azul Aktiv 129 / 134 40% 2 04.11.2026 -
Victor Froholdt Porto Aktiv 143 / 141 40% 9 01.11.2026 -
Che Adams Torino Aktiv 130 / 130 40% 1 30.10.2026 -
Francisco Moura Porto Aktiv 137 / 131 40% 1 28.10.2026 -
Samuel Dahl Benfica Aktiv 128 / 129 40% 3 23.10.2026 -
Agustín Palavecino Cruz Azul Aktiv 127 / 118 40% 2 15.10.2026 -
Andreas Schjelderup Benfica Aktiv 133 / 135 40% 1 15.10.2026 -
Andreas Pereira Palmeiras Aktiv 135 / 138 40% 3 14.10.2026 -
Leroy Sané Galatasaray Aktiv 154 / 159 40% 1 10.10.2026 -
Igor Paixão Olympique de Marseille Aktiv 144 / 157 40% 1 09.10.2026 -
Alexey Miranchuk Atlanta United FC Aktiv 134 / 139 40% 2 07.10.2026 -
John McGinn Aston Villa Aktiv 143 / 144 40% 1 03.10.2026 -
Sergi Altimira Sporting CP Aktiv 128 / 123 40% 3 30.09.2026 -
Lisandro Martínez Ajax Aktiv 144 / 161 40% 1 29.09.2026 -
Nehuén Pérez Porto Aktiv 150 / 124 40% 1 29.09.2026 -
Elliot Anderson Manchester City Aktiv 158 / 138 40% 1 22.09.2026 -
Donyell Malen AS Roma Aktiv 142 / 157 40% 2 14.09.2026 -
Amine Gouiri Olympique de Marseille Aktiv 142 / 131 40% 1 14.09.2026 -
Roberto Fernández Braga Aktiv 140 / 155 40% 4 03.09.2026 -
Ollie Watkins Al-Hilal Aktiv 149 / 133 40% 1 02.09.2026 -
Luis Romo Guadalajara Aktiv 128 / 148 40% 1 20.08.2026 -
Fernando Gorriarán Tigres Aktiv 129 / 145 40% 1 18.08.2026 -
Alejandro Zendejas Club America Aktiv 134 / 119 40% 2 16.08.2026 -
Kaoru Mitoma Brighton Aktiv 163 / 139 40% 1 13.08.2026 -
Dodi Lukébakio Benfica Aktiv 144 / 135 40% 1 09.08.2026 -
Alexander Sørloth Atlético Madrid Aktiv 148 / 136 40% 1 09.08.2026 -
Nuno Santos Sporting CP Aktiv 127 / 147 40% 1 06.08.2026 -
Marc Cucurella Real Madrid Aktiv 155 / 143 40% 1 06.08.2026 -
Antonee Robinson Fulham Aktiv 151 / 164 40% 1 03.08.2026 -
Alejandro Grimaldo Atlético Madrid Aktiv 164 / 163 40% 1 01.08.2026 -
Jorge De Frutos Rayo Vallecano Aktiv 154 / 151 40% 1 01.08.2026 -